Time,TemperatureF,DewpointF,PressureIn,WindDirection,WindDirectionDegrees,WindSpeedMPH,WindSpeedGustMPH,Humidity,HourlyPrecipIn,Conditions,Clouds,dailyrainin,SoftwareType,DateUTC
2014-08-22 00:03:00,78.1,74.6,29.66,ESE,112,1.7,-999.0,89,-99.99,,,0.00,Acu-Link.com,2014-08-22 05:03:00,
2014-08-22 00:19:00,77.7,74.2,29.65,ESE,112,2.7,-999.0,89,-99.99,,,0.00,Acu-Link.com,2014-08-22 05:19:00,
2014-08-22 00:34:00,77.5,74.3,29.64,ESE,112,2.7,-999.0,90,-99.99,,,0.00,Acu-Link.com,2014-08-22 05:34:00,
2014-08-22 00:49:00,77.0,73.8,29.64,SE,135,0.0,-999.0,90,-99.99,,,0.00,Acu-Link.com,2014-08-22 05:49:00,
2014-08-22 01:04:00,76.8,74.0,29.64,ESE,112,1.7,-999.0,91,-99.99,,,0.00,Acu-Link.com,2014-08-22 06:04:00,
2014-08-22 01:19:00,76.6,73.8,29.63,East,90,0.0,-999.0,91,-99.99,,,0.00,Acu-Link.com,2014-08-22 06:19:00,
2014-08-22 01:34:00,76.6,74.1,29.63,East,90,0.0,-999.0,92,-99.99,,,0.00,Acu-Link.com,2014-08-22 06:34:00,
2014-08-22 01:49:00,76.5,74.0,29.64,WSW,247,0.0,-999.0,92,-99.99,,,0.00,Acu-Link.com,2014-08-22 06:49:00,
2014-08-22 02:04:00,76.5,74.0,29.65,SSW,202,2.7,-999.0,92,-99.99,,,0.00,Acu-Link.com,2014-08-22 07:04:00,
2014-08-22 02:19:00,76.6,74.1,29.64,WSW,247,2.7,-999.0,92,-99.99,,,0.00,Acu-Link.com,2014-08-22 07:19:00,
2014-08-22 02:35:00,77.5,74.0,29.67,SW,225,14.0,-999.0,89,-99.99,,,0.00,Acu-Link.com,2014-08-22 07:35:00,
2014-08-22 02:50:00,77.7,72.1,29.69,WSW,247,11.4,-999.0,83,-99.99,,,0.00,Acu-Link.com,2014-08-22 07:50:00,
2014-08-22 03:05:00,74.5,69.7,29.69,West,270,18.1,-999.0,85,-99.99,,,0.00,Acu-Link.com,2014-08-22 08:05:00,
2014-08-22 03:20:00,73.2,69.1,29.69,WSW,247,4.2,-999.0,87,-99.99,,,0.00,Acu-Link.com,2014-08-22 08:20:00,
2014-08-22 03:35:00,72.9,69.1,29.68,WSW,247,5.3,-999.0,88,-99.99,,,0.00,Acu-Link.com,2014-08-22 08:35:00,
2014-08-22 03:50:00,72.1,69.0,29.66,SE,135,4.2,-999.0,90,-99.99,,,0.01,Acu-Link.com,2014-08-22 08:50:00,
2014-08-22 04:06:00,71.8,69.0,29.68,WNW,292,3.7,-999.0,91,-99.99,,,0.04,Acu-Link.com,2014-08-22 09:06:00,
2014-08-22 04:21:00,71.6,68.8,29.69,SSE,157,2.7,-999.0,91,-99.99,,,0.06,Acu-Link.com,2014-08-22 09:21:00,
2014-08-22 04:36:00,71.4,68.6,29.66,ENE,67,6.8,-999.0,91,-99.99,,,0.09,Acu-Link.com,2014-08-22 09:36:00,
2014-08-22 04:51:00,71.4,68.6,29.64,SW,225,6.8,-999.0,91,-99.99,,,0.11,Acu-Link.com,2014-08-22 09:51:00,
2014-08-22 05:06:00,71.1,68.3,29.64,SW,225,7.3,-999.0,91,-99.99,,,0.13,Acu-Link.com,2014-08-22 10:06:00,
2014-08-22 05:21:00,71.1,68.0,29.62,WSW,247,3.7,-999.0,90,-99.99,,,0.14,Acu-Link.com,2014-08-22 10:21:00,
2014-08-22 05:36:00,70.9,67.8,29.63,WSW,247,3.7,-999.0,90,-99.99,,,0.14,Acu-Link.com,2014-08-22 10:36:00,
2014-08-22 05:51:00,71.1,67.7,29.63,WSW,247,4.7,-999.0,89,-99.99,,,0.14,Acu-Link.com,2014-08-22 10:51:00,
2014-08-22 06:07:00,71.1,67.7,29.64,West,270,4.7,-999.0,89,-99.99,,,0.14,Acu-Link.com,2014-08-22 11:07:00,
2014-08-22 06:22:00,70.9,67.5,29.65,West,270,3.2,-999.0,89,-99.99,,,0.14,Acu-Link.com,2014-08-22 11:22:00,
2014-08-22 06:37:00,70.9,67.5,29.65,SSE,157,1.7,-999.0,89,-99.99,,,0.14,Acu-Link.com,2014-08-22 11:37:00,
2014-08-22 06:52:00,70.5,67.4,29.66,North,0,3.7,-999.0,90,-99.99,,,0.14,Acu-Link.com,2014-08-22 11:52:00,
2014-08-22 07:07:00,70.5,67.4,29.68,NNE,22,3.2,-999.0,90,-99.99,,,0.14,Acu-Link.com,2014-08-22 12:07:00,
2014-08-22 07:22:00,70.9,67.8,29.70,NE,45,3.2,-999.0,90,-99.99,,,0.14,Acu-Link.com,2014-08-22 12:22:00,
2014-08-22 07:37:00,72.3,69.2,29.70,ESE,112,3.2,-999.0,90,-99.99,,,0.14,Acu-Link.com,2014-08-22 12:37:00,
2014-08-22 07:53:00,72.9,69.1,29.71,ESE,112,4.2,-999.0,88,-99.99,,,0.14,Acu-Link.com,2014-08-22 12:53:00,
2014-08-22 08:08:00,73.4,69.6,29.71,East,90,4.2,-999.0,88,-99.99,,,0.14,Acu-Link.com,2014-08-22 13:08:00,
2014-08-22 08:23:00,74.8,70.0,29.72,ESE,112,4.7,-999.0,85,-99.99,,,0.14,Acu-Link.com,2014-08-22 13:23:00,
2014-08-22 08:38:00,76.5,70.6,29.71,East,90,2.7,-999.0,82,-99.99,,,0.14,Acu-Link.com,2014-08-22 13:38:00,
2014-08-22 08:53:00,77.0,71.1,29.70,East,90,2.7,-999.0,82,-99.99,,,0.14,Acu-Link.com,2014-08-22 13:53:00,
2014-08-22 09:08:00,79.5,70.9,29.70,ENE,67,4.2,-999.0,75,-99.99,,,0.14,Acu-Link.com,2014-08-22 14:08:00,
2014-08-22 09:23:00,78.6,70.4,29.70,ESE,112,2.7,-999.0,76,-99.99,,,0.14,Acu-Link.com,2014-08-22 14:23:00,
2014-08-22 09:38:00,79.3,71.1,29.72,SE,135,2.7,-999.0,76,-99.99,,,0.14,Acu-Link.com,2014-08-22 14:38:00,
2014-08-22 09:53:00,79.7,71.4,29.71,ESE,112,4.2,-999.0,76,-99.99,,,0.14,Acu-Link.com,2014-08-22 14:53:00,
2014-08-22 10:09:00,79.3,70.7,29.72,SSE,157,3.2,-999.0,75,-99.99,,,0.14,Acu-Link.com,2014-08-22 15:09:00,
2014-08-22 10:24:00,81.5,72.4,29.72,SSW,202,4.7,-999.0,74,-99.99,,,0.14,Acu-Link.com,2014-08-22 15:24:00,
2014-08-22 10:39:00,81.1,72.4,29.73,SSE,157,3.7,-999.0,75,-99.99,,,0.14,Acu-Link.com,2014-08-22 15:39:00,
2014-08-22 10:54:00,82.4,72.9,29.72,WSW,247,1.1,-999.0,73,-99.99,,,0.14,Acu-Link.com,2014-08-22 15:54:00,
2014-08-22 11:09:00,82.8,73.2,29.73,WSW,247,2.7,-999.0,73,-99.99,,,0.14,Acu-Link.com,2014-08-22 16:09:00,
2014-08-22 11:24:00,83.8,73.8,29.72,WSW,247,3.2,-999.0,72,-99.99,,,0.14,Acu-Link.com,2014-08-22 16:24:00,
2014-08-22 11:40:00,85.3,74.4,29.73,SSW,202,2.7,-999.0,70,-99.99,,,0.14,Acu-Link.com,2014-08-22 16:40:00,
2014-08-22 11:55:00,84.7,75.1,29.73,ESE,112,2.2,-999.0,73,-99.99,,,0.14,Acu-Link.com,2014-08-22 16:55:00,
2014-08-22 12:10:00,84.6,74.6,29.73,WSW,247,2.7,-999.0,72,-99.99,,,0.14,Acu-Link.com,2014-08-22 17:10:00,
2014-08-22 12:26:00,85.3,75.6,29.72,WSW,247,5.8,-999.0,73,-99.99,,,0.14,Acu-Link.com,2014-08-22 17:26:00,
2014-08-22 12:41:00,85.5,75.4,29.72,West,270,3.7,-999.0,72,-99.99,,,0.14,Acu-Link.com,2014-08-22 17:41:00,
2014-08-22 12:56:00,85.3,75.2,29.71,West,270,3.2,-999.0,72,-99.99,,,0.14,Acu-Link.com,2014-08-22 17:56:00,
2014-08-22 13:11:00,81.0,76.1,29.71,NE,45,1.7,-999.0,85,-99.99,,,0.21,Acu-Link.com,2014-08-22 18:11:00,
2014-08-22 13:27:00,82.9,77.2,29.70,NE,45,2.7,-999.0,83,-99.99,,,0.22,Acu-Link.com,2014-08-22 18:27:00,
2014-08-22 13:42:00,83.8,76.6,29.71,ESE,112,2.7,-999.0,79,-99.99,,,0.22,Acu-Link.com,2014-08-22 18:42:00,
2014-08-22 13:57:00,85.3,76.9,29.72,ENE,67,2.7,-999.0,76,-99.99,,,0.22,Acu-Link.com,2014-08-22 18:57:00,
2014-08-22 14:12:00,85.8,77.3,29.71,East,90,3.7,-999.0,76,-99.99,,,0.22,Acu-Link.com,2014-08-22 19:12:00,
2014-08-22 14:27:00,86.0,76.7,29.70,SE,135,1.7,-999.0,74,-99.99,,,0.22,Acu-Link.com,2014-08-22 19:27:00,
2014-08-22 14:42:00,86.4,77.5,29.69,East,90,3.2,-999.0,75,-99.99,,,0.22,Acu-Link.com,2014-08-22 19:42:00,
2014-08-22 14:57:00,87.6,77.4,29.69,ESE,112,3.7,-999.0,72,-99.99,,,0.22,Acu-Link.com,2014-08-22 19:57:00,
2014-08-22 15:12:00,86.5,77.2,29.69,ESE,112,5.8,-999.0,74,-99.99,,,0.22,Acu-Link.com,2014-08-22 20:12:00,
2014-08-22 15:27:00,87.8,78.9,29.70,NE,45,4.7,-999.0,75,-99.99,,,0.22,Acu-Link.com,2014-08-22 20:27:00,
2014-08-22 15:43:00,86.9,78.0,29.70,East,90,6.3,-999.0,75,-99.99,,,0.22,Acu-Link.com,2014-08-22 20:43:00,
2014-08-22 15:58:00,89.1,79.3,29.71,ENE,67,3.2,-999.0,73,-99.99,,,0.22,Acu-Link.com,2014-08-22 20:58:00,
2014-08-22 16:13:00,89.2,78.1,29.70,East,90,2.7,-999.0,70,-99.99,,,0.22,Acu-Link.com,2014-08-22 21:13:00,
2014-08-22 16:28:00,89.6,78.0,29.70,ESE,112,4.2,-999.0,69,-99.99,,,0.22,Acu-Link.com,2014-08-22 21:28:00,
2014-08-22 16:43:00,87.8,78.0,29.70,South,180,3.7,-999.0,73,-99.99,,,0.22,Acu-Link.com,2014-08-22 21:43:00,
2014-08-22 16:58:00,87.6,78.7,29.69,ESE,112,4.7,-999.0,75,-99.99,,,0.22,Acu-Link.com,2014-08-22 21:58:00,
2014-08-22 17:13:00,88.0,78.6,29.69,South,180,0.0,-999.0,74,-99.99,,,0.22,Acu-Link.com,2014-08-22 22:13:00,
2014-08-22 17:28:00,86.7,78.6,29.70,South,180,1.7,-999.0,77,-99.99,,,0.22,Acu-Link.com,2014-08-22 22:28:00,
2014-08-22 17:43:00,86.4,78.7,29.70,SW,225,4.2,-999.0,78,-99.99,,,0.22,Acu-Link.com,2014-08-22 22:43:00,
2014-08-22 17:58:00,84.4,77.5,29.70,WSW,247,4.7,-999.0,80,-99.99,,,0.22,Acu-Link.com,2014-08-22 22:58:00,
2014-08-22 18:14:00,82.6,75.8,29.71,West,270,8.9,-999.0,80,-99.99,,,0.22,Acu-Link.com,2014-08-22 23:14:00,
2014-08-22 18:29:00,81.3,74.9,29.70,SW,225,2.2,-999.0,81,-99.99,,,0.22,Acu-Link.com,2014-08-22 23:29:00,
2014-08-22 18:44:00,81.0,74.6,29.69,West,270,1.7,-999.0,81,-99.99,,,0.22,Acu-Link.com,2014-08-22 23:44:00,
2014-08-22 18:59:00,81.0,75.3,29.70,NNW,337,0.0,-999.0,83,-99.99,,,0.22,Acu-Link.com,2014-08-22 23:59:00,
2014-08-22 19:14:00,80.6,74.9,29.70,West,270,0.0,-999.0,83,-99.99,,,0.22,Acu-Link.com,2014-08-23 00:14:00,
2014-08-22 19:29:00,80.4,74.7,29.71,SW,225,0.0,-999.0,83,-99.99,,,0.22,Acu-Link.com,2014-08-23 00:29:00,
2014-08-22 19:45:00,79.7,74.4,29.72,WSW,247,0.0,-999.0,84,-99.99,,,0.22,Acu-Link.com,2014-08-23 00:45:00,
2014-08-22 20:00:00,78.8,73.9,29.72,ENE,67,0.0,-999.0,85,-99.99,,,0.22,Acu-Link.com,2014-08-23 01:00:00,
2014-08-22 20:15:00,78.3,73.8,29.72,ESE,112,0.0,-999.0,86,-99.99,,,0.22,Acu-Link.com,2014-08-23 01:15:00,
2014-08-22 20:30:00,77.9,73.7,29.73,NNE,22,0.0,-999.0,87,-99.99,,,0.22,Acu-Link.com,2014-08-23 01:30:00,
2014-08-22 20:45:00,77.7,73.9,29.75,North,0,3.2,-999.0,88,-99.99,,,0.22,Acu-Link.com,2014-08-23 01:45:00,
2014-08-22 21:00:00,77.7,73.9,29.74,North,0,3.7,-999.0,88,-99.99,,,0.22,Acu-Link.com,2014-08-23 02:00:00,
2014-08-22 21:15:00,77.7,73.9,29.74,NNE,22,2.7,-999.0,88,-99.99,,,0.22,Acu-Link.com,2014-08-23 02:15:00,
2014-08-22 21:30:00,77.7,73.9,29.74,NE,45,1.1,-999.0,88,-99.99,,,0.22,Acu-Link.com,2014-08-23 02:30:00,
2014-08-22 21:45:00,77.2,73.7,29.72,East,90,2.2,-999.0,89,-99.99,,,0.22,Acu-Link.com,2014-08-23 02:45:00,
2014-08-22 22:01:00,76.8,73.3,29.72,SE,135,2.2,-999.0,89,-99.99,,,0.22,Acu-Link.com,2014-08-23 03:01:00,
2014-08-22 22:16:00,76.5,73.3,29.71,SSE,157,0.0,-999.0,90,-99.99,,,0.22,Acu-Link.com,2014-08-23 03:16:00,
2014-08-22 22:31:00,75.9,73.1,29.72,West,270,1.1,-999.0,91,-99.99,,,0.22,Acu-Link.com,2014-08-23 03:31:00,
2014-08-22 22:46:00,75.6,72.8,29.71,WNW,292,0.0,-999.0,91,-99.99,,,0.22,Acu-Link.com,2014-08-23 03:46:00,
2014-08-22 23:01:00,75.4,72.9,29.72,NNE,22,0.0,-999.0,92,-99.99,,,0.22,Acu-Link.com,2014-08-23 04:01:00,